createdAt,value
2022-12-01T00:01:31.068Z,63.67
2022-12-01T00:03:58.334Z,66.22
2022-12-01T00:06:25.544Z,65.22
2022-12-01T00:09:15.146Z,65.80
2022-12-01T00:11:45.257Z,64.73
2022-12-01T00:14:12.398Z,67.55
2022-12-01T00:16:41.049Z,67.90
2022-12-01T00:19:08.786Z,64.45
2022-12-01T00:21:35.957Z,67.22
2022-12-01T00:24:03.199Z,68.78
2022-12-01T00:26:30.398Z,67.95
2022-12-01T00:28:59.722Z,67.78
2022-12-01T00:31:27.762Z,65.55
2022-12-01T00:33:55.639Z,68.32
2022-12-01T00:36:23.119Z,68.07
2022-12-01T00:38:57.200Z,66.95
2022-12-01T00:41:26.437Z,64.32
2022-12-01T00:43:53.660Z,66.05
2022-12-01T00:46:21.181Z,65.90
2022-12-01T00:48:48.427Z,63.10
2022-12-01T00:51:15.603Z,61.05
2022-12-01T00:53:42.823Z,61.85
2022-12-01T00:56:10.042Z,61.05
2022-12-01T00:58:37.212Z,63.92
2022-12-01T01:01:04.521Z,62.53
2022-12-01T01:03:33.683Z,64.78
2022-12-01T01:06:07.962Z,62.03
2022-12-01T01:08:36.514Z,63.53
2022-12-01T01:11:05.124Z,65.63
2022-12-01T01:13:33.356Z,65.03
2022-12-01T01:16:08.390Z,63.55
2022-12-01T01:18:35.632Z,61.42
2022-12-01T01:21:10.755Z,64.75
2022-12-01T01:23:38.350Z,65.03
2022-12-01T01:26:17.286Z,67.72
2022-12-01T01:28:46.816Z,65.10
2022-12-01T01:31:21.620Z,65.47
2022-12-01T01:33:49.040Z,66.25
2022-12-01T01:36:18.147Z,64.93
2022-12-01T01:38:46.256Z,67.20
2022-12-01T01:41:14.789Z,63.75
2022-12-01T01:43:57.406Z,64.90
2022-12-01T01:46:31.864Z,66.75
2022-12-01T01:49:14.284Z,66.45
2022-12-01T01:51:53.263Z,62.73
2022-12-01T01:54:37.368Z,62.45
2022-12-01T01:57:07.657Z,63.17
2022-12-01T01:59:42.810Z,62.40
2022-12-01T02:02:12.305Z,62.92
2022-12-01T02:04:48.949Z,62.50
2022-12-01T02:07:19.104Z,59.38
2022-12-01T02:09:46.621Z,56.03
2022-12-01T02:12:58.369Z,55.20
2022-12-01T02:15:42.148Z,52.95
2022-12-01T02:18:38.933Z,55.60
2022-12-01T02:22:06.039Z,53.60
2022-12-01T02:25:06.932Z,54.97
2022-12-01T02:28:30.651Z,53.85
2022-12-01T02:31:35.731Z,56.15
2022-12-01T02:34:35.020Z,57.13
2022-12-01T02:37:15.821Z,56.88
2022-12-01T02:40:24.632Z,58.35
2022-12-01T02:43:09.596Z,53.72
2022-12-01T02:45:49.031Z,58.53
2022-12-01T02:48:33.801Z,59.38
2022-12-01T02:51:11.864Z,59.10
2022-12-01T02:53:39.173Z,59.33
2022-12-01T02:56:11.616Z,75.43
2022-12-01T02:58:39.331Z,44.47
2022-12-01T03:01:37.909Z,55.22
2022-12-01T03:04:14.374Z,55.67
2022-12-01T03:07:19.198Z,55.03
2022-12-01T03:10:25.495Z,56.42
2022-12-01T03:13:19.709Z,54.55
2022-12-01T03:16:00.669Z,53.40
2022-12-01T03:18:43.886Z,55.45
2022-12-01T03:21:33.045Z,56.47
2022-12-01T03:24:09.449Z,57.28
2022-12-01T03:26:40.010Z,53.88
2022-12-01T03:29:14.981Z,55.13
2022-12-01T03:31:53.662Z,55.08
2022-12-01T03:34:56.448Z,53.53
2022-12-01T03:37:32.590Z,51.70
2022-12-01T03:40:06.281Z,50.85
2022-12-01T03:42:37.207Z,51.80
2022-12-01T03:45:15.464Z,51.42
2022-12-01T03:47:43.415Z,51.65
2022-12-01T03:50:14.190Z,53.10
2022-12-01T03:53:19.227Z,52.80
2022-12-01T03:55:57.105Z,54.80
2022-12-01T03:58:35.482Z,54.05
2022-12-01T04:01:05.082Z,53.70
2022-12-01T04:03:33.315Z,55.50
2022-12-01T04:06:00.826Z,55.55
2022-12-01T04:08:28.032Z,53.58
2022-12-01T04:10:55.230Z,55.15
2022-12-01T04:13:23.257Z,55.58
2022-12-01T04:15:53.073Z,54.53
2022-12-01T04:18:21.484Z,55.45
2022-12-01T04:20:50.195Z,52.67
2022-12-01T04:23:36.244Z,50.75
2022-12-01T04:26:05.245Z,51.20
2022-12-01T04:28:32.413Z,50.50
2022-12-01T04:30:59.649Z,50.72
2022-12-01T04:33:26.823Z,47.47
2022-12-01T04:35:59.832Z,47.65
2022-12-01T04:40:58.358Z,44.88
2022-12-01T04:43:26.444Z,45.80
2022-12-01T04:45:53.600Z,44.92
2022-12-01T04:48:20.826Z,44.17
2022-12-01T04:50:49.769Z,45.13
2022-12-01T04:53:16.977Z,45.05
2022-12-01T04:55:44.166Z,48.45
2022-12-01T04:58:11.411Z,46.90
2022-12-01T05:00:38.661Z,45.72
2022-12-01T05:03:09.587Z,47.25
2022-12-01T05:05:39.344Z,47.25
2022-12-01T05:08:06.609Z,46.65
2022-12-01T05:10:37.650Z,47.53
2022-12-01T05:13:05.829Z,48.33
2022-12-01T05:15:33.075Z,47.88
2022-12-01T05:18:00.719Z,46.97
2022-12-01T05:21:06.676Z,46.85
2022-12-01T05:23:36.476Z,46.47
2022-12-01T05:26:07.404Z,43.70
2022-12-01T05:28:35.831Z,40.15
2022-12-01T05:31:03.844Z,41.55
2022-12-01T05:33:31.332Z,42.13
2022-12-01T05:35:58.531Z,43.58
2022-12-01T05:38:25.664Z,44.28
2022-12-01T05:40:55.314Z,44.00
2022-12-01T05:43:28.560Z,43.55
2022-12-01T05:45:57.912Z,43.03
2022-12-01T05:48:26.489Z,44.03
2022-12-01T05:50:53.721Z,41.88
2022-12-01T05:53:21.160Z,43.88
2022-12-01T05:55:55.220Z,42.08
2022-12-01T05:58:22.633Z,41.75
2022-12-01T06:00:49.843Z,43.15
2022-12-01T06:03:17.012Z,43.10
2022-12-01T06:05:44.156Z,43.35
2022-12-01T06:08:11.324Z,43.88
2022-12-01T06:10:38.444Z,42.38
2022-12-01T06:13:05.691Z,42.45
2022-12-01T06:15:32.879Z,43.05
2022-12-01T06:18:00.054Z,44.58
2022-12-01T06:20:27.267Z,44.20
2022-12-01T06:22:54.425Z,46.50
2022-12-01T06:25:21.590Z,45.03
2022-12-01T06:27:48.888Z,48.17
2022-12-01T06:30:16.252Z,46.63
2022-12-01T06:32:43.391Z,48.97
2022-12-01T06:35:10.541Z,46.33
2022-12-01T06:37:37.693Z,46.55
2022-12-01T06:40:05.850Z,45.88
2022-12-01T06:42:33.056Z,47.83
2022-12-01T06:45:00.259Z,47.97
2022-12-01T06:47:27.507Z,47.17
2022-12-01T06:49:55.117Z,45.70
2022-12-01T06:52:22.262Z,44.35
2022-12-01T06:54:51.670Z,43.80
2022-12-01T06:57:19.020Z,43.58
2022-12-01T06:59:46.887Z,43.95
2022-12-01T07:02:14.979Z,45.20
2022-12-01T07:04:42.606Z,43.30
2022-12-01T07:07:13.129Z,42.55
2022-12-01T07:09:40.285Z,44.22
2022-12-01T07:12:07.745Z,42.88
2022-12-01T07:14:35.820Z,43.45
2022-12-01T07:17:03.130Z,42.88
2022-12-01T07:19:30.830Z,41.47
2022-12-01T07:21:58.066Z,43.38
2022-12-01T07:24:25.212Z,44.03
2022-12-01T07:26:52.489Z,45.40
2022-12-01T07:29:19.667Z,45.20
2022-12-01T07:31:46.859Z,45.50
2022-12-01T07:34:14.695Z,45.20
2022-12-01T07:36:42.054Z,48.72
2022-12-01T07:39:09.241Z,49.10
2022-12-01T07:41:36.504Z,48.42
2022-12-01T07:44:03.751Z,49.35
2022-12-01T07:46:31.102Z,48.17
2022-12-01T07:48:59.402Z,46.58
2022-12-01T07:51:27.691Z,46.08
2022-12-01T07:53:55.553Z,44.33
2022-12-01T07:56:23.406Z,43.08
2022-12-01T07:58:50.662Z,45.78
2022-12-01T08:01:22.296Z,45.55
2022-12-01T08:03:55.887Z,47.10
2022-12-01T08:06:25.023Z,47.63
2022-12-01T08:08:52.548Z,46.33
2022-12-01T08:11:26.182Z,46.83
2022-12-01T08:13:53.832Z,44.58
2022-12-01T08:16:24.190Z,45.78
2022-12-01T08:18:52.111Z,44.95
2022-12-01T08:21:22.529Z,46.70
2022-12-01T08:23:55.313Z,45.88
2022-12-01T08:26:24.670Z,44.63
2022-12-01T08:28:51.883Z,42.65
2022-12-01T08:31:27.651Z,45.13
2022-12-01T08:33:55.981Z,44.90
2022-12-01T08:36:24.437Z,45.88
2022-12-01T08:38:55.171Z,45.33
2022-12-01T08:41:24.599Z,45.55
2022-12-01T08:44:00.746Z,47.03
2022-12-01T08:46:32.642Z,46.40
2022-12-01T08:49:01.415Z,45.53
2022-12-01T08:51:29.727Z,46.08
2022-12-01T08:53:59.019Z,44.90
2022-12-01T08:56:33.891Z,44.97
2022-12-01T08:59:01.300Z,45.67
2022-12-01T09:01:29.114Z,43.78
2022-12-01T09:04:11.063Z,45.05
2022-12-01T09:06:43.974Z,45.58
2022-12-01T09:11:43.845Z,44.13
2022-12-01T09:14:13.129Z,43.22
2022-12-01T09:16:42.175Z,45.00
2022-12-01T09:19:10.878Z,45.22
2022-12-01T09:21:40.760Z,43.25
2022-12-01T09:24:10.956Z,43.45
2022-12-01T09:26:38.072Z,41.63
2022-12-01T09:29:09.688Z,42.40
2022-12-01T09:31:37.652Z,42.20
2022-12-01T09:34:10.263Z,42.03
2022-12-01T09:36:38.579Z,45.28
2022-12-01T09:39:08.985Z,42.55
2022-12-01T09:41:49.576Z,44.65
2022-12-01T09:44:45.323Z,41.78
2022-12-01T09:47:29.774Z,43.15
2022-12-01T09:50:18.721Z,42.90
2022-12-01T09:53:08.786Z,44.22
2022-12-01T09:55:36.483Z,43.35
2022-12-01T09:58:05.729Z,42.03
2022-12-01T10:00:42.697Z,45.40
2022-12-01T10:03:30.919Z,45.00
2022-12-01T10:09:32.856Z,41.90
2022-12-01T10:12:13.563Z,43.60
2022-12-01T10:14:46.355Z,42.58
2022-12-01T10:17:25.386Z,45.28
2022-12-01T10:20:01.252Z,46.10
2022-12-01T10:23:17.425Z,46.30
2022-12-01T10:26:05.115Z,44.78
2022-12-01T10:29:04.825Z,45.28
2022-12-01T10:32:00.445Z,43.33
2022-12-01T10:34:37.516Z,43.78
2022-12-01T10:37:06.158Z,44.40
2022-12-01T10:39:44.557Z,42.45
2022-12-01T10:42:41.021Z,41.40
2022-12-01T10:45:17.040Z,42.38
2022-12-01T10:48:18.922Z,40.30
2022-12-01T10:50:54.197Z,39.67
2022-12-01T10:53:25.199Z,39.53
2022-12-01T10:56:21.972Z,39.20
2022-12-01T10:58:57.972Z,39.78
2022-12-01T11:01:31.865Z,39.55
2022-12-01T11:04:33.250Z,39.88
2022-12-01T11:07:01.718Z,39.78
2022-12-01T11:09:31.273Z,39.83
2022-12-01T11:12:04.359Z,40.45
2022-12-01T11:14:46.973Z,38.55
2022-12-01T11:17:26.547Z,38.10
2022-12-01T11:19:54.001Z,39.05
2022-12-01T11:22:26.857Z,38.78
2022-12-01T11:24:53.877Z,39.42
2022-12-01T11:27:37.060Z,40.78
2022-12-01T11:32:39.732Z,39.13
2022-12-01T11:35:12.604Z,40.15
2022-12-01T11:38:13.337Z,37.13
2022-12-01T11:40:51.774Z,38.58
2022-12-01T11:43:26.947Z,40.10
2022-12-01T11:45:58.250Z,38.30
2022-12-01T11:48:29.751Z,39.15
2022-12-01T11:51:19.418Z,38.70
2022-12-01T11:53:46.881Z,41.25
2022-12-01T11:56:24.878Z,43.53
2022-12-01T11:59:04.873Z,42.95
2022-12-01T12:01:36.417Z,41.50
2022-12-01T12:04:36.400Z,41.55
2022-12-01T12:07:24.504Z,39.55
2022-12-01T12:10:22.265Z,39.70
2022-12-01T12:13:34.665Z,40.45
2022-12-01T12:16:32.024Z,40.80
2022-12-01T12:20:00.131Z,41.63
2022-12-01T12:23:01.453Z,41.27
2022-12-01T12:25:59.219Z,41.55
2022-12-01T12:28:56.058Z,40.92
2022-12-01T12:31:47.100Z,41.13
2022-12-01T12:34:35.034Z,41.58
2022-12-01T12:37:34.752Z,43.85
2022-12-01T12:40:17.816Z,42.95
2022-12-01T12:43:18.398Z,43.47
2022-12-01T12:46:08.581Z,41.63
2022-12-01T12:49:20.904Z,41.42
2022-12-01T12:52:08.305Z,41.47
2022-12-01T12:55:06.042Z,42.92
2022-12-01T12:57:39.730Z,41.13
2022-12-01T13:00:27.426Z,43.38
2022-12-01T13:03:49.261Z,42.40
2022-12-01T13:06:43.328Z,41.08
2022-12-01T13:09:26.989Z,41.22
2022-12-01T13:12:28.242Z,43.58
2022-12-01T13:15:20.590Z,42.92
2022-12-01T13:18:03.973Z,41.88
2022-12-01T13:20:34.721Z,43.45
2022-12-01T13:23:03.596Z,42.63
2022-12-01T13:25:39.837Z,44.42
2022-12-01T13:28:27.253Z,42.00
2022-12-01T13:31:13.986Z,44.00
2022-12-01T13:34:26.623Z,43.30
2022-12-01T13:36:56.064Z,42.22
2022-12-01T13:39:35.406Z,42.75
2022-12-01T13:42:07.949Z,43.53
2022-12-01T13:44:41.994Z,44.78
2022-12-01T13:47:11.816Z,46.95
2022-12-01T13:49:48.733Z,45.40
2022-12-01T13:52:22.089Z,43.47
2022-12-01T13:55:07.425Z,42.95
2022-12-01T13:57:42.983Z,43.97
2022-12-01T14:00:31.651Z,43.05
2022-12-01T14:03:19.963Z,42.83
2022-12-01T14:05:53.143Z,42.33
2022-12-01T14:08:34.219Z,44.92
2022-12-01T14:11:22.516Z,43.28
2022-12-01T14:14:10.264Z,42.78
2022-12-01T14:16:58.619Z,42.67
2022-12-01T14:19:32.300Z,44.00
2022-12-01T14:22:02.399Z,52.42
2022-12-01T14:24:51.120Z,45.95
2022-12-01T14:27:42.093Z,46.05
2022-12-01T14:30:46.415Z,48.33
2022-12-01T14:33:57.935Z,51.08
2022-12-01T14:37:08.873Z,49.22
2022-12-01T14:39:40.745Z,48.00
2022-12-01T14:42:11.041Z,47.88
2022-12-01T14:44:47.687Z,47.92
2022-12-01T14:47:49.395Z,45.38
2022-12-01T14:50:31.890Z,46.63
2022-12-01T14:53:24.690Z,47.47
2022-12-01T14:55:59.911Z,48.50
2022-12-01T14:58:31.524Z,45.65
2022-12-01T15:01:13.229Z,45.65
2022-12-01T15:03:50.550Z,45.63
2022-12-01T15:06:27.253Z,46.00
2022-12-01T15:09:34.364Z,44.75
2022-12-01T15:12:07.462Z,44.55
2022-12-01T15:14:48.206Z,45.50
2022-12-01T15:17:34.539Z,45.53
2022-12-01T15:20:01.926Z,45.28
2022-12-01T15:22:33.363Z,47.08
2022-12-01T15:25:13.333Z,45.25
2022-12-01T15:27:40.814Z,44.33
2022-12-01T15:30:15.179Z,45.85
2022-12-01T15:32:45.830Z,45.42
2022-12-01T15:35:22.822Z,45.28
2022-12-01T15:37:52.377Z,44.63
2022-12-01T15:43:22.148Z,44.33
2022-12-01T15:46:00.723Z,46.60
2022-12-01T15:48:35.615Z,46.13
2022-12-01T15:51:18.387Z,44.35
2022-12-01T15:53:55.371Z,44.58
2022-12-01T15:56:31.630Z,44.03
2022-12-01T15:59:24.127Z,44.78
2022-12-01T16:01:51.395Z,41.23
2022-12-01T16:04:24.237Z,43.42
2022-12-01T16:07:01.833Z,41.92
2022-12-01T16:09:37.781Z,41.42
2022-12-01T16:12:23.087Z,40.67
2022-12-01T16:14:52.774Z,44.60
2022-12-01T16:17:20.783Z,42.13
2022-12-01T16:19:47.942Z,42.75
2022-12-01T16:22:21.912Z,44.92
2022-12-01T16:24:55.467Z,40.50
2022-12-01T16:27:29.891Z,41.72
2022-12-01T16:30:19.111Z,41.15
2022-12-01T16:32:49.175Z,41.97
2022-12-01T16:35:34.433Z,41.58
2022-12-01T16:38:16.128Z,42.42
2022-12-01T16:40:43.820Z,42.35
2022-12-01T16:43:21.639Z,42.40
2022-12-01T16:45:52.901Z,42.15
2022-12-01T16:48:20.415Z,40.45
2022-12-01T16:50:49.355Z,41.50
2022-12-01T16:53:16.921Z,42.40
2022-12-01T16:55:56.850Z,43.08
2022-12-01T16:58:25.354Z,40.95
2022-12-01T17:00:53.436Z,42.47
2022-12-01T17:03:27.799Z,40.63
2022-12-01T17:05:55.499Z,38.80
2022-12-01T17:08:23.354Z,44.30
2022-12-01T17:10:52.285Z,47.83
2022-12-01T17:13:23.364Z,50.00
2022-12-01T17:15:54.719Z,42.70
2022-12-01T17:18:24.060Z,44.75
2022-12-01T17:21:04.843Z,42.45
2022-12-01T17:23:33.240Z,42.65
2022-12-01T17:26:01.198Z,44.20
2022-12-01T17:28:28.405Z,44.95
2022-12-01T17:31:00.684Z,44.50
2022-12-01T17:33:28.002Z,44.97
2022-12-01T17:35:55.150Z,45.67
2022-12-01T17:38:22.338Z,47.03
2022-12-01T17:41:25.396Z,44.55
2022-12-01T17:43:52.605Z,33.97
2022-12-01T17:46:19.964Z,46.00
2022-12-01T17:48:47.459Z,45.20
2022-12-01T17:51:15.373Z,44.58
2022-12-01T17:53:42.726Z,44.78
2022-12-01T17:56:13.514Z,45.75
2022-12-01T17:58:40.756Z,45.50
2022-12-01T18:01:17.151Z,44.10
2022-12-01T18:03:44.914Z,45.08
2022-12-01T18:06:13.251Z,42.67
2022-12-01T18:08:43.489Z,45.03
2022-12-01T18:11:15.990Z,45.38
2022-12-01T18:13:47.218Z,46.55
2022-12-01T18:16:19.368Z,45.80
2022-12-01T18:18:47.757Z,45.73
2022-12-01T18:21:18.663Z,43.72
2022-12-01T18:23:51.736Z,44.70
2022-12-01T18:26:21.906Z,44.55
2022-12-01T18:28:58.960Z,43.45
2022-12-01T18:31:27.668Z,46.38
2022-12-01T18:33:59.265Z,45.25
2022-12-01T18:36:26.708Z,47.63
2022-12-01T18:38:59.033Z,48.80
2022-12-01T18:41:26.951Z,49.47
2022-12-01T18:43:54.739Z,50.00
2022-12-01T18:46:22.627Z,50.22
2022-12-01T18:49:00.669Z,50.80
2022-12-01T18:51:29.980Z,50.97
2022-12-01T18:53:59.973Z,50.38
2022-12-01T18:56:28.497Z,48.70
2022-12-01T18:59:06.845Z,48.25
2022-12-01T19:01:39.353Z,49.72
2022-12-01T19:04:09.880Z,47.83
2022-12-01T19:06:39.771Z,47.47
2022-12-01T19:09:10.387Z,47.70
2022-12-01T19:11:40.350Z,47.92
2022-12-01T19:14:13.101Z,46.25
2022-12-01T19:16:40.468Z,46.85
2022-12-01T19:19:07.837Z,47.03
2022-12-01T19:21:36.287Z,48.65
2022-12-01T19:24:03.708Z,46.03
2022-12-01T19:26:31.392Z,48.22
2022-12-01T19:28:59.382Z,45.88
2022-12-01T19:31:26.686Z,46.15
2022-12-01T19:33:55.026Z,49.30
2022-12-01T19:36:26.308Z,50.03
2022-12-01T19:38:57.441Z,47.63
2022-12-01T19:41:26.213Z,48.38
2022-12-01T19:43:54.741Z,46.83
2022-12-01T19:46:26.929Z,45.78
2022-12-01T19:49:00.524Z,46.67
2022-12-01T19:51:33.445Z,47.38
2022-12-01T19:56:28.983Z,46.13
2022-12-01T19:58:57.243Z,46.70
2022-12-01T20:01:26.159Z,48.53
2022-12-01T20:03:54.369Z,47.08
2022-12-01T20:06:26.102Z,49.72
2022-12-01T20:08:56.893Z,47.17
2022-12-01T20:11:25.806Z,48.92
2022-12-01T20:13:53.328Z,52.80
2022-12-01T20:16:24.319Z,52.85
2022-12-01T20:18:53.497Z,52.92
2022-12-01T20:21:24.766Z,55.00
2022-12-01T20:24:00.918Z,54.55
2022-12-01T20:26:32.399Z,60.15
2022-12-01T20:29:07.396Z,57.22
2022-12-01T20:31:36.744Z,56.30
2022-12-01T20:34:10.585Z,58.08
2022-12-01T20:36:39.256Z,54.97
2022-12-01T20:39:08.081Z,56.70
2022-12-01T20:41:36.243Z,56.65
2022-12-01T20:44:07.496Z,57.45
2022-12-01T20:46:37.951Z,61.13
2022-12-01T20:49:05.458Z,58.50
2022-12-01T20:51:33.349Z,57.42
2022-12-01T20:54:27.448Z,59.13
2022-12-01T20:56:50.631Z,56.70
2022-12-01T20:59:17.797Z,57.80
2022-12-01T21:01:44.991Z,56.40
2022-12-01T21:04:12.187Z,59.33
2022-12-01T21:06:39.339Z,59.30
2022-12-01T21:09:07.403Z,57.67
2022-12-01T21:12:02.976Z,59.80
2022-12-01T21:15:01.228Z,59.20
2022-12-01T21:17:43.726Z,58.70
2022-12-01T21:20:25.066Z,58.72
2022-12-01T21:22:53.573Z,58.53
2022-12-01T21:25:24.340Z,61.25
2022-12-01T21:27:54.706Z,58.33
2022-12-01T21:30:29.754Z,60.22
2022-12-01T21:33:41.220Z,58.65
2022-12-01T21:36:20.786Z,58.90
2022-12-01T21:39:00.439Z,58.00
2022-12-01T21:41:30.133Z,57.50
2022-12-01T21:44:28.161Z,57.35
2022-12-01T21:46:58.114Z,57.90
2022-12-01T21:49:37.876Z,58.78
2022-12-01T21:52:23.070Z,56.92
2022-12-01T21:54:51.799Z,56.40
2022-12-01T21:57:42.927Z,55.72
2022-12-01T22:00:34.283Z,55.15
2022-12-01T22:03:37.701Z,56.78
2022-12-01T22:06:29.384Z,56.60
2022-12-01T22:09:14.322Z,55.50
2022-12-01T22:11:45.228Z,58.47
2022-12-01T22:14:23.369Z,57.88
2022-12-01T22:17:02.353Z,55.40
2022-12-01T22:19:38.625Z,55.60
2022-12-01T22:22:08.540Z,55.42
2022-12-01T22:24:45.920Z,56.92
2022-12-01T22:27:31.635Z,57.35
2022-12-01T22:30:11.121Z,54.83
2022-12-01T22:32:51.511Z,55.55
2022-12-01T22:35:54.225Z,55.65
2022-12-01T22:38:30.837Z,54.40
2022-12-01T22:41:13.161Z,53.55
2022-12-01T22:43:52.726Z,53.87
2022-12-01T22:46:39.692Z,54.25
2022-12-01T22:49:09.898Z,54.53
2022-12-01T22:51:46.358Z,53.30
2022-12-01T22:54:16.184Z,53.53
2022-12-01T22:56:47.544Z,54.28
2022-12-01T22:59:24.052Z,53.85
2022-12-01T23:01:55.020Z,53.70
2022-12-01T23:04:38.494Z,55.17
2022-12-01T23:07:32.005Z,52.92
2022-12-01T23:10:22.997Z,53.35
2022-12-01T23:12:54.785Z,55.83
2022-12-01T23:15:44.908Z,53.08
2022-12-01T23:18:23.936Z,53.95
2022-12-01T23:20:55.095Z,52.90
2022-12-01T23:23:27.960Z,54.70
2022-12-01T23:25:55.931Z,54.85
2022-12-01T23:28:24.632Z,52.85
2022-12-01T23:30:56.797Z,53.63
2022-12-01T23:33:28.888Z,40.90
2022-12-01T23:36:12.195Z,53.30
2022-12-01T23:38:43.473Z,53.08
2022-12-01T23:41:25.453Z,53.70
2022-12-01T23:43:55.895Z,54.65
2022-12-01T23:46:26.905Z,52.50
2022-12-01T23:49:09.281Z,54.55
2022-12-01T23:51:42.530Z,41.27
2022-12-01T23:54:27.769Z,53.63
2022-12-01T23:57:03.837Z,54.72
2022-12-01T23:59:31.675Z,54.78
